Flight Track Log - Related Links

Times and Time Zones

All times are in EDT time to prevent confusion due to time zone crossing. See the JZA8482 flight status page for this flight to view local times or setup timezone preferences in your user account.

Time Position Orientation Groundspeed Altitude Reporting Facility
EDT Latitude Longitude Course Direction KTS MPH feet Rate Location/Type
Fri 10:36:36 PM 55.1833 -118.9833 144° Southeast 130 150 3,700  Level Edmonton Center
Fri 10:37:36 PM 55.1667 -119.0167 229° Southwest 140 161 5,000 1,450 Climbing Edmonton Center
Fri 10:38:36 PM 55.1333 -118.9667 139° Southeast 150 173 6,600 1,450 Climbing Edmonton Center
Fri 10:39:36 PM 55.0833 -118.9167 150° Southeast 160 184 7,900 1,350 Climbing Edmonton Center
Fri 10:40:36 PM 55.0500 -118.8833 150° Southeast 170 196 9,300 1,300 Climbing Edmonton Center
Fri 10:41:00 PM 54.8272 -118.4144 142° Southeast  Level Estimated
Fri 10:41:36 PM 55.0167 -118.8000 125° Southeast 170 196 10,500  Level Edmonton Center
Fri 10:42:00 PM 54.7683 -118.3368 144° Southeast  Level Estimated
Fri 10:42:36 PM 54.9667 -118.7500 150° Southeast 180 207 11,900  Level Edmonton Center
Fri 10:43:36 PM 54.9333 -118.7167 150° Southeast 180 207 12,900 1,100 Climbing Edmonton Center
Fri 10:44:36 PM 54.8833 -118.6333 136° Southeast 200 230 14,100 1,250 Climbing Edmonton Center
Fri 10:45:36 PM 54.8333 -118.5833 150° Southeast 210 242 15,400 1,250 Climbing Edmonton Center
Fri 10:46:36 PM 54.7833 -118.5167 142° Southeast 210 242 16,600 1,150 Climbing Edmonton Center
Fri 10:47:36 PM 54.7500 -118.4667 139° Southeast 210 242 17,700 1,150 Climbing Edmonton Center
Fri 10:48:36 PM 54.7000 -118.4000 142° Southeast 220 253 18,900 1,150 Climbing Edmonton Center
Fri 10:49:36 PM 54.6333 -118.3500 157° South 220 253 20,000 1,050 Climbing Edmonton Center
Fri 10:50:36 PM 54.6000 -118.2667 125° Southeast 220 253 21,000 900 Climbing Edmonton Center
Fri 10:51:36 PM 54.5333 -118.2167 156° South 220 253 21,800 750 Climbing Edmonton Center
Fri 10:52:36 PM 54.4833 -118.1500 142° Southeast 230 265 22,500 600 Climbing Edmonton Center
Fri 10:53:36 PM 54.4333 -118.0667 136° Southeast 230 265 23,000 250 Climbing Edmonton Center
Fri 10:54:36 PM 54.3667 -118.0167 156° South 260 299 23,000  Level Edmonton Center
Fri 10:55:36 PM 54.3000 -117.9333 144° Southeast 280 322 23,000  Level Edmonton Center
Fri 10:56:36 PM 54.2500 -117.8500 136° Southeast 280 322 23,000  Level Edmonton Center
Fri 10:57:36 PM 54.1833 -117.7833 150° Southeast 290 334 23,000  Level Edmonton Center
Fri 10:58:36 PM 54.1167 -117.7000 144° Southeast 290 334 23,000  Level Edmonton Center
Fri 10:59:36 PM 54.0500 -117.6167 144° Southeast 290 334 23,000  Level Edmonton Center
Fri 11:00:36 PM 53.9833 -117.5000 134° Southeast 290 334 23,000  Level Edmonton Center
Fri 11:01:36 PM 53.9167 -117.4333 149° Southeast 290 334 23,000  Level Edmonton Center
Fri 11:02:36 PM 53.8333 -117.3500 149° Southeast 290 334 23,000  Level Edmonton Center
Fri 11:03:36 PM 53.7833 -117.2667 135° Southeast 290 334 23,000  Level Edmonton Center
Fri 11:04:36 PM 53.7167 -117.2000 149° Southeast 290 334 23,000  Level Edmonton Center
Fri 11:05:36 PM 53.6500 -117.1167 143° Southeast 290 334 23,000  Level Edmonton Center
Fri 11:06:36 PM 53.5833 -117.0333 143° Southeast 290 334 23,000  Level Edmonton Center
Fri 11:07:36 PM 53.5000 -116.9500 149° Southeast 290 334 23,000  Level Edmonton Center
Fri 11:08:36 PM 53.4500 -116.8833 142° Southeast 290 334 23,000  Level Edmonton Center
Fri 11:09:36 PM 53.3833 -116.8000 143° Southeast 290 334 23,000  Level Edmonton Center
Fri 11:10:36 PM 53.3167 -116.7333 149° Southeast 290 334 23,000  Level Edmonton Center
Fri 11:11:36 PM 53.2500 -116.6500 143° Southeast 290 334 23,000  Level Edmonton Center
Fri 11:12:36 PM 53.1833 -116.5833 149° Southeast 290 334 23,000  Level Edmonton Center
Fri 11:13:36 PM 53.1000 -116.5000 149° Southeast 290 334 23,000  Level Edmonton Center
Fri 11:14:36 PM 53.0500 -116.4167 135° Southeast 290 334 23,000  Level Edmonton Center
Fri 11:15:36 PM 52.9833 -116.3500 149° Southeast 290 334 23,000  Level Edmonton Center
Fri 11:16:36 PM 52.9000 -116.2667 149° Southeast 290 334 23,000  Level Edmonton Center
Fri 11:17:36 PM 52.8500 -116.2000 141° Southeast 280 322 23,000  Level Edmonton Center
Fri 11:18:36 PM 52.7833 -116.1333 149° Southeast 280 322 23,000  Level Edmonton Center
Fri 11:19:36 PM 52.7000 -116.0500 149° Southeast 290 334 23,000  Level Edmonton Center
Fri 11:20:36 PM 52.6500 -115.9833 141° Southeast 290 334 23,000  Level Edmonton Center
Fri 11:21:36 PM 52.5833 -115.8833 138° Southeast 290 334 23,000  Level Edmonton Center
Fri 11:22:36 PM 52.5000 -115.8333 160° South 290 334 23,000  Level Edmonton Center
Fri 11:23:36 PM 52.4500 -115.7500 135° Southeast 290 334 23,000  Level Edmonton Center
Fri 11:24:36 PM 52.3833 -115.6833 149° Southeast 280 322 23,000  Level Edmonton Center
Fri 11:25:36 PM 52.3167 -115.5833 137° Southeast 290 334 23,000  Level Edmonton Center
Fri 11:26:36 PM 52.2500 -115.5000 143° Southeast 290 334 23,000  Level Edmonton Center
Fri 11:27:36 PM 52.1667 -115.4333 154° Southeast 290 334 23,000  Level Edmonton Center
Fri 11:28:36 PM 52.1167 -115.3667 141° Southeast 290 334 23,000 -450 Level Edmonton Center
Fri 11:29:36 PM 52.0500 -115.2833 142° Southeast 300 345 22,100 -1,200 Descending Edmonton Center
Fri 11:30:36 PM 51.9667 -115.2167 154° Southeast 320 368 20,600 -1,450 Descending Edmonton Center
Fri 11:31:36 PM 51.8833 -115.1500 154° Southeast 320 368 19,200 -1,500 Descending Edmonton Center
Fri 11:32:36 PM 51.8167 -115.0500 137° Southeast 310 357 17,600 -1,450 Descending Edmonton Center
Fri 11:33:36 PM 51.7500 -114.9667 142° Southeast 310 357 16,300 -1,350 Descending Edmonton Center
Fri 11:34:36 PM 51.6667 -114.9000 154° Southeast 310 357 14,900 -1,400 Descending Edmonton Center
Fri 11:35:36 PM 51.6000 -114.8333 148° Southeast 310 357 13,500 -1,350 Descending Edmonton Center
Fri 11:36:36 PM 51.5333 -114.7333 137° Southeast 310 357 12,200 -1,350 Descending Edmonton Center
Fri 11:37:36 PM 51.4833 -114.6000 121° Southeast 300 345 10,800 -1,200 Descending Edmonton Center
Fri 11:38:36 PM 51.4333 -114.5500 148° Southeast 280 322 9,800 -1,000 Descending Edmonton Center
Fri 11:39:36 PM 51.3667 -114.4500 137° Southeast 270 311 8,800 -1,000 Descending Edmonton Center
Fri 11:40:36 PM 51.3333 -114.3500 118° Southeast 270 311 7,800 -1,000 Descending Edmonton Center
Fri 11:41:36 PM 51.2667 -114.2833 148° Southeast 250 288 6,800 -850 Descending Edmonton Center
Fri 11:42:36 PM 51.2000 -114.2833 180° South 210 242 6,100 -400 Descending Edmonton Center
Fri 11:43:36 PM 51.1500 -114.2333 148° Southeast 170 196 6,000 -500 Descending Edmonton Center
Fri 11:44:36 PM 51.1333 -114.1833 118° Southeast 170 196 5,100 -900 Descending Edmonton Center

Login

Don't have an account? Register now (free) for customized features, flight alerts, and more!